nws-alerts: Checking more than four warning/county codes can delay the loading of your pages. You should use a cron job to get the data.
EllijayWeather Station Historical Data
Daily Summary for February 7, 2019 Units:  English    Metric   Both
Daily Weekly Monthly Yearly Custom
  High: Low: Average:
Temperature: 75.4 °F 62.2 °F 66.3 °F
Dew Point: 63.1 °F 56.1 °F 60.2 °F
Humidity: 97% 58% 82%
Wind Speed: 6.0mph 0.0mph 0.2mph
Wind Gust: 6.0mph - -
Wind- - SE
Pressure: 30.13 in 30.02 in -
Precipitation: 0.00 in    
Historical Graphs
 
 
Tabular Data for February 7, 2019
Time Temperature Dew Point Pressure Wind Wind Speed Wind Gust Humidity Rainfall Rate (Hourly) solar
00:04 63.0 °F 62.1 °F 30.10 in Calm     97% 0.00 in meteobridge W/m2
00:09 63.0 °F 62.1 °F 30.10 in Calm   1.0 mph 97% 0.00 in meteobridge W/m2
00:14 63.1 °F 62.1 °F 30.09 in Calm     96% 0.00 in meteobridge W/m2
00:19 63.0 °F 61.9 °F 30.10 in Calm     96% 0.00 in meteobridge W/m2
00:24 63.0 °F 61.9 °F 30.10 in Calm     96% 0.00 in meteobridge W/m2
00:29 63.0 °F 61.9 °F 30.10 in Calm   1.0 mph 96% 0.00 in meteobridge W/m2
00:34 63.1 °F 62.1 °F 30.09 in Calm   1.0 mph 96% 0.00 in meteobridge W/m2
00:39 63.1 °F 62.1 °F 30.09 in Calm     96% 0.00 in meteobridge W/m2
00:44 63.1 °F 62.1 °F 30.10 in Calm     96% 0.00 in meteobridge W/m2
00:49 63.1 °F 62.1 °F 30.09 in Calm     96% 0.00 in meteobridge W/m2
00:54 63.1 °F 62.1 °F 30.09 in Calm     96% 0.00 in meteobridge W/m2
00:59 63.1 °F 62.1 °F 30.10 in Calm     96% 0.00 in meteobridge W/m2
01:04 63.1 °F 62.1 °F 30.10 in Calm     96% 0.00 in meteobridge W/m2
01:09 63.1 °F 62.1 °F 30.10 in Calm     96% 0.00 in meteobridge W/m2
01:14 63.1 °F 62.1 °F 30.10 in Calm     96% 0.00 in meteobridge W/m2
01:19 63.0 °F 61.9 °F 30.10 in Calm     96% 0.00 in meteobridge W/m2
01:24 63.0 °F 61.9 °F 30.10 in Calm     96% 0.00 in meteobridge W/m2
01:29 63.0 °F 62.1 °F 30.09 in Calm     97% 0.00 in meteobridge W/m2
01:34 63.0 °F 62.1 °F 30.09 in Calm     97% 0.00 in meteobridge W/m2
01:39 63.0 °F 62.1 °F 30.09 in Calm     97% 0.00 in meteobridge W/m2
01:44 63.0 °F 62.1 °F 30.09 in Calm     97% 0.00 in meteobridge W/m2
01:49 63.0 °F 62.1 °F 30.09 in Calm     97% 0.00 in meteobridge W/m2
01:54 63.1 °F 62.2 °F 30.09 in Calm     97% 0.00 in meteobridge W/m2
01:59 63.1 °F 62.2 °F 30.09 in Calm     97% 0.00 in meteobridge W/m2
02:04 63.1 °F 62.2 °F 30.09 in Calm     97% 0.00 in meteobridge W/m2
02:09 63.1 °F 62.1 °F 30.09 in Calm     96% 0.00 in meteobridge W/m2
02:14 63.1 °F 62.1 °F 30.09 in Calm     96% 0.00 in meteobridge W/m2
02:19 63.1 °F 62.1 °F 30.10 in Calm     96% 0.00 in meteobridge W/m2
02:24 63.1 °F 62.2 °F 30.09 in Calm     97% 0.00 in meteobridge W/m2
02:29 63.1 °F 62.1 °F 30.10 in Calm     96% 0.00 in meteobridge W/m2
02:34 63.1 °F 62.1 °F 30.09 in Calm   1.0 mph 96% 0.00 in meteobridge W/m2
02:39 63.1 °F 62.1 °F 30.09 in Calm   1.0 mph 96% 0.00 in meteobridge W/m2
02:44 63.1 °F 62.1 °F 30.09 in Calm     96% 0.00 in meteobridge W/m2
02:49 63.1 °F 62.1 °F 30.09 in Calm     96% 0.00 in meteobridge W/m2
02:54 63.1 °F 62.1 °F 30.09 in Calm     96% 0.00 in meteobridge W/m2
02:59 63.3 °F 62.2 °F 30.09 in Calm     96% 0.00 in meteobridge W/m2
03:04 63.3 °F 62.2 °F 30.09 in Calm   2.0 mph 96% 0.00 in meteobridge W/m2
03:09 63.3 °F 62.2 °F 30.09 in Calm     96% 0.00 in meteobridge W/m2
03:14 63.3 °F 62.2 °F 30.09 in Calm     96% 0.00 in meteobridge W/m2
03:19 63.3 °F 62.2 °F 30.09 in Calm     96% 0.00 in meteobridge W/m2
03:24 63.5 °F 62.4 °F 30.09 in Calm     96% 0.00 in meteobridge W/m2
03:29 63.3 °F 62.2 °F 30.09 in Calm     96% 0.00 in meteobridge W/m2
03:34 63.5 °F 62.4 °F 30.09 in Calm     96% 0.00 in meteobridge W/m2
03:39 63.7 °F 62.2 °F 30.09 in Calm   1.0 mph 95% 0.00 in meteobridge W/m2
03:44 63.7 °F 62.2 °F 30.09 in Calm     95% 0.00 in meteobridge W/m2
03:49 63.7 °F 62.2 °F 30.09 in Calm     95% 0.00 in meteobridge W/m2
03:54 63.5 °F 62.1 °F 30.09 in Calm     95% 0.00 in meteobridge W/m2
03:59 63.7 °F 62.2 °F 30.09 in Calm     95% 0.00 in meteobridge W/m2
04:04 63.5 °F 62.1 °F 30.09 in Calm   1.0 mph 95% 0.00 in meteobridge W/m2
04:09 63.7 °F 62.2 °F 30.09 in Calm     95% 0.00 in meteobridge W/m2
04:14 63.5 °F 62.1 °F 30.09 in Calm   2.0 mph 95% 0.00 in meteobridge W/m2
04:19 63.3 °F 61.9 °F 30.09 in Calm     95% 0.00 in meteobridge W/m2
04:24 63.3 °F 61.9 °F 30.09 in Calm     95% 0.00 in meteobridge W/m2
04:29 63.3 °F 61.9 °F 30.09 in Calm   1.0 mph 95% 0.00 in meteobridge W/m2
04:34 63.3 °F 61.9 °F 30.09 in Calm   4.0 mph 95% 0.00 in meteobridge W/m2
04:39 63.3 °F 61.5 °F 30.09 in Calm   4.0 mph 94% 0.00 in meteobridge W/m2
04:44 63.3 °F 61.5 °F 30.09 in Calm     94% 0.00 in meteobridge W/m2
04:49 63.3 °F 61.5 °F 30.09 in Calm     94% 0.00 in meteobridge W/m2
04:54 63.3 °F 61.5 °F 30.09 in Calm     94% 0.00 in meteobridge W/m2
04:59 63.3 °F 61.5 °F 30.09 in Calm     94% 0.00 in meteobridge W/m2
05:04 63.1 °F 61.3 °F 30.09 in Calm     94% 0.00 in meteobridge W/m2
05:09 63.1 °F 61.3 °F 30.09 in Calm   1.0 mph 94% 0.00 in meteobridge W/m2
05:14 63.1 °F 61.3 °F 30.09 in Calm     94% 0.00 in meteobridge W/m2
05:19 63.1 °F 61.3 °F 30.09 in Calm     94% 0.00 in meteobridge W/m2
05:24 63.0 °F 61.2 °F 30.09 in Calm   2.0 mph 94% 0.00 in meteobridge W/m2
05:29 63.0 °F 61.2 °F 30.09 in Calm     94% 0.00 in meteobridge W/m2
05:34 63.0 °F 61.2 °F 30.09 in Calm     94% 0.00 in meteobridge W/m2
05:39 63.0 °F 61.2 °F 30.09 in Calm     94% 0.00 in meteobridge W/m2
05:44 63.0 °F 61.2 °F 30.09 in Calm     94% 0.00 in meteobridge W/m2
05:49 63.0 °F 61.2 °F 30.09 in Calm   4.0 mph 94% 0.00 in meteobridge W/m2
05:54 63.0 °F 61.2 °F 30.09 in Calm   1.0 mph 94% 0.00 in meteobridge W/m2
05:59 63.0 °F 61.2 °F 30.09 in Calm     94% 0.00 in meteobridge W/m2
06:04 63.0 °F 61.2 °F 30.09 in Calm     94% 0.00 in meteobridge W/m2
06:09 63.0 °F 61.2 °F 30.09 in Calm     94% 0.00 in meteobridge W/m2
06:14 62.8 °F 61.0 °F 30.09 in Calm     94% 0.00 in meteobridge W/m2
06:19 62.8 °F 61.0 °F 30.09 in Calm     94% 0.00 in meteobridge W/m2
06:24 62.8 °F 61.0 °F 30.09 in Calm     94% 0.00 in meteobridge W/m2
06:29 62.8 °F 61.0 °F 30.09 in Calm     94% 0.00 in meteobridge W/m2
06:34 62.8 °F 61.0 °F 30.09 in SE 0.9 mph 1.0 mph 94% 0.00 in meteobridge W/m2
06:39 62.8 °F 61.0 °F 30.09 in Calm     94% 0.00 in meteobridge W/m2
06:44 62.6 °F 60.8 °F 30.09 in Calm     94% 0.00 in meteobridge W/m2
06:49 62.4 °F 60.6 °F 30.09 in Calm     94% 0.00 in meteobridge W/m2
06:54 62.6 °F 60.8 °F 30.10 in Calm     94% 0.00 in meteobridge W/m2
06:59 62.6 °F 60.8 °F 30.10 in Calm   1.0 mph 94% 0.00 in meteobridge W/m2
07:04 62.8 °F 61.0 °F 30.10 in Calm     94% 0.00 in meteobridge W/m2
07:09 62.6 °F 60.8 °F 30.10 in Calm     94% 0.00 in meteobridge W/m2
07:14 62.4 °F 60.6 °F 30.10 in Calm     94% 0.00 in meteobridge W/m2
07:19 62.4 °F 60.6 °F 30.09 in Calm     94% 0.00 in meteobridge W/m2
07:24 62.4 °F 60.6 °F 30.10 in Calm     94% 0.00 in meteobridge W/m2
07:29 62.4 °F 60.6 °F 30.10 in Calm   4.0 mph 94% 0.00 in meteobridge W/m2
07:34 62.4 °F 60.6 °F 30.10 in Calm     94% 0.00 in meteobridge W/m2
07:39 62.4 °F 60.6 °F 30.10 in Calm     94% 0.00 in meteobridge W/m2
07:44 62.2 °F 60.4 °F 30.10 in Calm     94% 0.00 in meteobridge W/m2
07:49 62.2 °F 60.4 °F 30.09 in Calm     94% 0.00 in meteobridge W/m2
07:54 62.2 °F 60.4 °F 30.10 in Calm     94% 0.00 in meteobridge W/m2
07:59 62.2 °F 60.4 °F 30.10 in Calm     94% 0.00 in meteobridge W/m2
08:04 62.2 °F 60.4 °F 30.10 in Calm     94% 0.00 in meteobridge W/m2
08:09 62.2 °F 60.4 °F 30.11 in Calm     94% 0.00 in meteobridge W/m2
08:14 62.2 °F 60.3 °F 30.10 in Calm   1.0 mph 93% 0.00 in meteobridge W/m2
08:19 62.2 °F 60.3 °F 30.10 in Calm     93% 0.00 in meteobridge W/m2
08:24 62.2 °F 60.3 °F 30.10 in Calm     93% 0.00 in meteobridge W/m2
08:29 62.2 °F 60.3 °F 30.10 in Calm     93% 0.00 in meteobridge W/m2
08:34 62.2 °F 60.3 °F 30.11 in Calm     93% 0.00 in meteobridge W/m2
08:39 62.2 °F 60.3 °F 30.11 in Calm     93% 0.00 in meteobridge W/m2
08:44 62.2 °F 60.3 °F 30.11 in Calm     93% 0.00 in meteobridge W/m2
08:49 62.2 °F 60.3 °F 30.10 in Calm     93% 0.00 in meteobridge W/m2
08:54 62.2 °F 60.3 °F 30.11 in Calm     93% 0.00 in meteobridge W/m2
08:59 62.2 °F 60.3 °F 30.11 in Calm   1.0 mph 93% 0.00 in meteobridge W/m2
09:04 62.4 °F 60.1 °F 30.11 in Calm   2.0 mph 92% 0.00 in meteobridge W/m2
09:09 62.4 °F 60.1 °F 30.11 in Calm     92% 0.00 in meteobridge W/m2
09:14 62.4 °F 60.1 °F 30.11 in Calm     92% 0.00 in meteobridge W/m2
09:19 62.4 °F 60.1 °F 30.11 in Calm     92% 0.00 in meteobridge W/m2
09:24 62.6 °F 60.3 °F 30.11 in Calm     92% 0.00 in meteobridge W/m2
09:29 62.8 °F 60.4 °F 30.11 in Calm     92% 0.00 in meteobridge W/m2
09:34 62.8 °F 60.4 °F 30.11 in Calm   2.0 mph 92% 0.00 in meteobridge W/m2
09:39 62.8 °F 60.4 °F 30.11 in Calm   2.0 mph 92% 0.00 in meteobridge W/m2
09:44 63.0 °F 60.6 °F 30.11 in Calm     92% 0.00 in meteobridge W/m2
09:49 63.0 °F 60.6 °F 30.11 in Calm     92% 0.00 in meteobridge W/m2
09:54 63.0 °F 60.6 °F 30.11 in Calm     92% 0.00 in meteobridge W/m2
09:59 63.1 °F 60.8 °F 30.11 in Calm     92% 0.00 in meteobridge W/m2
10:04 63.0 °F 60.6 °F 30.11 in Calm   1.0 mph 92% 0.00 in meteobridge W/m2
10:09 63.1 °F 60.8 °F 30.11 in ENE 0.9 mph 1.0 mph 92% 0.00 in meteobridge W/m2
10:14 63.1 °F 60.8 °F 30.11 in Calm     92% 0.00 in meteobridge W/m2
10:19 63.3 °F 61.0 °F 30.11 in Calm   1.0 mph 92% 0.00 in meteobridge W/m2
10:24 63.7 °F 61.3 °F 30.11 in Calm     92% 0.00 in meteobridge W/m2
10:29 63.9 °F 61.2 °F 30.11 in Calm     91% 0.00 in meteobridge W/m2
10:34 63.9 °F 61.2 °F 30.11 in Calm     91% 0.00 in meteobridge W/m2
10:39 64.0 °F 61.3 °F 30.11 in Calm     91% 0.00 in meteobridge W/m2
10:44 64.0 °F 61.3 °F 30.11 in Calm     91% 0.00 in meteobridge W/m2
10:49 64.0 °F 61.3 °F 30.11 in Calm     91% 0.00 in meteobridge W/m2
10:54 64.2 °F 61.5 °F 30.11 in Calm   1.0 mph 91% 0.00 in meteobridge W/m2
10:59 64.4 °F 61.7 °F 30.11 in Calm     91% 0.00 in meteobridge W/m2
11:04 64.8 °F 62.1 °F 30.11 in Calm   1.0 mph 91% 0.00 in meteobridge W/m2
11:09 64.9 °F 61.9 °F 30.11 in ESE 4.0 mph 4.0 mph 90% 0.00 in meteobridge W/m2
11:14 65.5 °F 61.9 °F 30.11 in Calm   1.0 mph 88% 0.00 in meteobridge W/m2
11:19 65.8 °F 62.2 °F 30.11 in Calm     88% 0.00 in meteobridge W/m2
11:24 66.0 °F 62.1 °F 30.11 in Calm   2.0 mph 87% 0.00 in meteobridge W/m2
11:29 66.4 °F 62.1 °F 30.12 in East 0.9 mph 1.0 mph 86% 0.00 in meteobridge W/m2
11:34 66.6 °F 61.9 °F 30.12 in Calm   2.0 mph 85% 0.00 in meteobridge W/m2
11:38 66.7 °F 62.4 °F 30.12 in Calm     86% 0.00 in meteobridge W/m2
11:44 66.7 °F 61.7 °F 30.13 in Calm     84% 0.00 in meteobridge W/m2
11:49 66.9 °F 61.9 °F 30.12 in SSE 2.0 mph 2.0 mph 84% 0.00 in meteobridge W/m2
11:54 67.3 °F 62.2 °F 30.12 in Calm     84% 0.00 in meteobridge W/m2
11:59 67.5 °F 62.1 °F 30.12 in Calm   1.0 mph 83% 0.00 in meteobridge W/m2
12:04 67.6 °F 62.6 °F 30.12 in Calm     84% 0.00 in meteobridge W/m2
12:09 67.8 °F 62.4 °F 30.11 in Calm     83% 0.00 in meteobridge W/m2
12:14 68.0 °F 62.6 °F 30.11 in Calm   1.0 mph 83% 0.00 in meteobridge W/m2
12:19 68.4 °F 61.9 °F 30.11 in Calm   1.0 mph 80% 0.00 in meteobridge W/m2
12:24 68.5 °F 62.4 °F 30.11 in Calm   2.0 mph 81% 0.00 in meteobridge W/m2
12:29 69.3 °F 62.8 °F 30.11 in East 2.0 mph 3.0 mph 80% 0.00 in meteobridge W/m2
12:34 69.6 °F 62.1 °F 30.10 in ESE 4.0 mph 5.0 mph 77% 0.00 in meteobridge W/m2
12:39 70.0 °F 62.1 °F 30.10 in WSW 2.0 mph 6.0 mph 76% 0.00 in meteobridge W/m2
12:44 70.2 °F 62.2 °F 30.09 in SE 0.9 mph 5.0 mph 76% 0.00 in meteobridge W/m2
12:49 70.0 °F 62.1 °F 30.09 in Calm   4.0 mph 76% 0.00 in meteobridge W/m2
12:54 70.3 °F 62.8 °F 30.09 in Calm   4.0 mph 77% 0.00 in meteobridge W/m2
12:59 70.9 °F 63.0 °F 30.08 in ESE 0.9 mph 1.0 mph 76% 0.00 in meteobridge W/m2
13:04 71.1 °F 61.9 °F 30.08 in SSW 2.9 mph 3.0 mph 73% 0.00 in meteobridge W/m2
13:09 71.1 °F 62.8 °F 30.08 in Calm   2.0 mph 75% 0.00 in meteobridge W/m2
13:14 71.1 °F 62.8 °F 30.08 in Calm   2.0 mph 75% 0.00 in meteobridge W/m2
13:19 71.1 °F 63.1 °F 30.08 in Calm   1.0 mph 76% 0.00 in meteobridge W/m2
13:24 71.1 °F 62.4 °F 30.07 in Calm     74% 0.00 in meteobridge W/m2
13:29 71.1 °F 63.1 °F 30.07 in Calm     76% 0.00 in meteobridge W/m2
13:34 71.1 °F 62.4 °F 30.07 in Calm     74% 0.00 in meteobridge W/m2
13:39 71.2 °F 63.0 °F 30.06 in Calm   2.0 mph 75% 0.00 in meteobridge W/m2
13:44 71.4 °F 62.8 °F 30.06 in Calm   5.0 mph 74% 0.00 in meteobridge W/m2
13:49 71.8 °F 62.6 °F 30.06 in North 0.9 mph 2.0 mph 73% 0.00 in meteobridge W/m2
13:54 72.1 °F 62.2 °F 30.06 in Calm   4.0 mph 71% 0.00 in meteobridge W/m2
13:59 72.5 °F 63.0 °F 30.06 in ENE 0.9 mph 2.0 mph 72% 0.00 in meteobridge W/m2
14:04 73.0 °F 63.1 °F 30.06 in SE 2.0 mph 5.0 mph 71% 0.00 in meteobridge W/m2
14:09 73.8 °F 62.1 °F 30.05 in ESE 0.9 mph 5.0 mph 67% 0.00 in meteobridge W/m2
14:14 74.1 °F 62.1 °F 30.05 in Calm   4.0 mph 66% 0.00 in meteobridge W/m2
14:19 74.5 °F 61.9 °F 30.05 in Calm   5.0 mph 65% 0.00 in meteobridge W/m2
14:24 74.7 °F 61.7 °F 30.04 in Calm   4.0 mph 64% 0.00 in meteobridge W/m2
14:29 74.8 °F 61.9 °F 30.04 in SSE 0.9 mph 1.0 mph 64% 0.00 in meteobridge W/m2
14:34 74.8 °F 61.9 °F 30.04 in Calm   3.0 mph 64% 0.00 in meteobridge W/m2
14:39 74.7 °F 61.7 °F 30.03 in Calm   4.0 mph 64% 0.00 in meteobridge W/m2
14:44 74.5 °F 61.9 °F 30.04 in SSE 4.0 mph 4.0 mph 65% 0.00 in meteobridge W/m2
14:49 74.5 °F 61.9 °F 30.03 in ESE 6.0 mph 6.0 mph 65% 0.00 in meteobridge W/m2
14:54 74.7 °F 60.8 °F 30.03 in Calm   5.0 mph 62% 0.00 in meteobridge W/m2
14:59 75.0 °F 60.6 °F 30.03 in Calm   5.0 mph 61% 0.00 in meteobridge W/m2
15:04 75.4 °F 60.1 °F 30.03 in Calm   5.0 mph 59% 0.00 in meteobridge W/m2
15:09 75.2 °F 60.4 °F 30.03 in ENE 2.0 mph 3.0 mph 60% 0.00 in meteobridge W/m2
15:14 75.2 °F 60.8 °F 30.02 in Calm   5.0 mph 61% 0.00 in meteobridge W/m2
15:19 75.4 °F 60.1 °F 30.03 in SSE 2.0 mph 6.0 mph 59% 0.00 in meteobridge W/m2
15:24 75.2 °F 60.4 °F 30.02 in Calm     60% 0.00 in meteobridge W/m2
15:29 75.4 °F 60.1 °F 30.02 in ESE 4.9 mph 5.0 mph 59% 0.00 in meteobridge W/m2
15:34 75.4 °F 60.1 °F 30.02 in Calm   4.0 mph 59% 0.00 in meteobridge W/m2
15:39 75.4 °F 60.1 °F 30.02 in Calm     59% 0.00 in meteobridge W/m2
15:44 75.4 °F 60.1 °F 30.02 in Calm   1.0 mph 59% 0.00 in meteobridge W/m2
15:49 75.0 °F 59.2 °F 30.02 in Calm   1.0 mph 58% 0.00 in meteobridge W/m2
15:54 75.0 °F 59.7 °F 30.02 in Calm   5.0 mph 59% 0.00 in meteobridge W/m2
15:59 74.8 °F 60.1 °F 30.02 in Calm   2.0 mph 60% 0.00 in meteobridge W/m2
16:04 74.7 °F 59.4 °F 30.02 in WNW 0.9 mph 5.0 mph 59% 0.00 in meteobridge W/m2
16:09 74.5 °F 59.7 °F 30.02 in Calm   4.0 mph 60% 0.00 in meteobridge W/m2
16:14 74.3 °F 59.5 °F 30.02 in SE 0.9 mph 1.0 mph 60% 0.00 in meteobridge W/m2
16:19 74.1 °F 59.4 °F 30.02 in Calm   2.0 mph 60% 0.00 in meteobridge W/m2
16:24 74.1 °F 59.4 °F 30.02 in Calm   1.0 mph 60% 0.00 in meteobridge W/m2
16:29 74.1 °F 59.7 °F 30.02 in Calm   4.0 mph 61% 0.00 in meteobridge W/m2
16:34 74.1 °F 59.4 °F 30.02 in Calm   1.0 mph 60% 0.00 in meteobridge W/m2
16:39 73.9 °F 59.7 °F 30.02 in Calm   1.0 mph 61% 0.00 in meteobridge W/m2
16:44 73.8 °F 59.5 °F 30.02 in Calm     61% 0.00 in meteobridge W/m2
16:49 73.6 °F 59.7 °F 30.02 in Calm     62% 0.00 in meteobridge W/m2
16:54 73.2 °F 59.4 °F 30.03 in Calm     62% 0.00 in meteobridge W/m2
16:59 73.2 °F 59.4 °F 30.02 in Calm     62% 0.00 in meteobridge W/m2
17:04 73.0 °F 60.1 °F 30.02 in Calm     64% 0.00 in meteobridge W/m2
17:09 72.9 °F 59.9 °F 30.02 in Calm   1.0 mph 64% 0.00 in meteobridge W/m2
17:14 72.7 °F 59.7 °F 30.02 in Calm     64% 0.00 in meteobridge W/m2
17:19 72.7 °F 59.4 °F 30.02 in Calm     63% 0.00 in meteobridge W/m2
17:24 72.7 °F 59.4 °F 30.03 in Calm     63% 0.00 in meteobridge W/m2
17:29 72.7 °F 59.7 °F 30.02 in Calm     64% 0.00 in meteobridge W/m2
17:34 72.3 °F 59.0 °F 30.03 in Calm   1.0 mph 63% 0.00 in meteobridge W/m2
17:39 72.1 °F 59.4 °F 30.02 in Calm     64% 0.00 in meteobridge W/m2
17:44 72.0 °F 58.6 °F 30.02 in Calm   1.0 mph 63% 0.00 in meteobridge W/m2
17:49 72.0 °F 58.3 °F 30.02 in Calm     62% 0.00 in meteobridge W/m2
17:54 72.0 °F 58.6 °F 30.02 in Calm     63% 0.00 in meteobridge W/m2
17:59 71.8 °F 58.5 °F 30.02 in Calm     63% 0.00 in meteobridge W/m2
18:04 71.2 °F 58.5 °F 30.03 in Calm     64% 0.00 in meteobridge W/m2
18:09 71.1 °F 58.3 °F 30.03 in Calm     64% 0.00 in meteobridge W/m2
18:14 70.5 °F 58.1 °F 30.03 in Calm     65% 0.00 in meteobridge W/m2
18:19 70.2 °F 58.6 °F 30.03 in Calm     67% 0.00 in meteobridge W/m2
18:24 69.6 °F 58.1 °F 30.02 in Calm     67% 0.00 in meteobridge W/m2
18:29 69.1 °F 58.5 °F 30.02 in Calm     69% 0.00 in meteobridge W/m2
18:34 68.7 °F 58.1 °F 30.02 in Calm     69% 0.00 in meteobridge W/m2
18:39 68.4 °F 58.6 °F 30.02 in Calm     71% 0.00 in meteobridge W/m2
18:44 67.6 °F 57.9 °F 30.02 in Calm     71% 0.00 in meteobridge W/m2
18:49 67.3 °F 57.6 °F 30.03 in Calm     71% 0.00 in meteobridge W/m2
18:54 66.9 °F 57.9 °F 30.03 in Calm     73% 0.00 in meteobridge W/m2
18:59 66.9 °F 57.6 °F 30.03 in Calm     72% 0.00 in meteobridge W/m2
19:04 67.1 °F 57.0 °F 30.03 in Calm     70% 0.00 in meteobridge W/m2
19:09 67.1 °F 56.7 °F 30.03 in Calm     69% 0.00 in meteobridge W/m2
19:14 67.3 °F 56.8 °F 30.03 in Calm     69% 0.00 in meteobridge W/m2
19:19 67.3 °F 56.8 °F 30.03 in Calm     69% 0.00 in meteobridge W/m2
19:24 67.3 °F 57.2 °F 30.02 in Calm     70% 0.00 in meteobridge W/m2
19:29 66.9 °F 56.5 °F 30.02 in Calm   1.0 mph 69% 0.00 in meteobridge W/m2
19:34 66.7 °F 56.3 °F 30.03 in Calm     69% 0.00 in meteobridge W/m2
19:39 66.6 °F 56.5 °F 30.03 in Calm     70% 0.00 in meteobridge W/m2
19:44 66.4 °F 56.3 °F 30.03 in Calm     70% 0.00 in meteobridge W/m2
19:49 66.4 °F 56.3 °F 30.03 in Calm   1.0 mph 70% 0.00 in meteobridge W/m2
19:54 66.4 °F 56.7 °F 30.03 in Calm     71% 0.00 in meteobridge W/m2
19:58 66.4 °F 56.3 °F 30.03 in Calm     70% 0.00 in meteobridge W/m2
20:04 66.7 °F 56.3 °F 30.04 in Calm   1.0 mph 69% 0.00 in meteobridge W/m2
20:09 66.9 °F 56.5 °F 30.04 in Calm   2.0 mph 69% 0.00 in meteobridge W/m2
20:14 67.1 °F 56.1 °F 30.05 in Calm     68% 0.00 in meteobridge W/m2
20:19 67.3 °F 56.8 °F 30.05 in Calm     69% 0.00 in meteobridge W/m2
20:24 67.3 °F 56.8 °F 30.04 in Calm   2.0 mph 69% 0.00 in meteobridge W/m2
20:29 67.3 °F 56.8 °F 30.04 in Calm     69% 0.00 in meteobridge W/m2
20:34 67.1 °F 56.7 °F 30.04 in Calm     69% 0.00 in meteobridge W/m2
20:39 66.9 °F 56.5 °F 30.04 in Calm     69% 0.00 in meteobridge W/m2
20:44 66.7 °F 56.3 °F 30.04 in Calm     69% 0.00 in meteobridge W/m2
20:49 66.6 °F 56.5 °F 30.04 in Calm     70% 0.00 in meteobridge W/m2
20:54 66.4 °F 56.3 °F 30.04 in Calm     70% 0.00 in meteobridge W/m2
20:59 66.2 °F 56.1 °F 30.04 in Calm     70% 0.00 in meteobridge W/m2
21:04 66.0 °F 56.3 °F 30.04 in Calm     71% 0.00 in meteobridge W/m2
21:09 66.0 °F 56.3 °F 30.04 in Calm     71% 0.00 in meteobridge W/m2
21:14 66.0 °F 56.3 °F 30.04 in Calm     71% 0.00 in meteobridge W/m2
21:19 66.0 °F 56.7 °F 30.04 in Calm     72% 0.00 in meteobridge W/m2
21:24 65.8 °F 56.5 °F 30.04 in Calm     72% 0.00 in meteobridge W/m2
21:29 65.7 °F 56.3 °F 30.05 in Calm     72% 0.00 in meteobridge W/m2
21:34 65.5 °F 56.7 °F 30.04 in Calm     73% 0.00 in meteobridge W/m2
21:39 65.5 °F 56.7 °F 30.04 in Calm     73% 0.00 in meteobridge W/m2
21:44 65.3 °F 56.8 °F 30.04 in Calm     74% 0.00 in meteobridge W/m2
21:49 65.1 °F 56.7 °F 30.04 in Calm     74% 0.00 in meteobridge W/m2
21:54 65.1 °F 56.7 °F 30.04 in Calm   1.0 mph 74% 0.00 in meteobridge W/m2
21:59 65.1 °F 57.0 °F 30.05 in Calm     75% 0.00 in meteobridge W/m2
22:04 64.8 °F 56.7 °F 30.04 in Calm     75% 0.00 in meteobridge W/m2
22:09 64.6 °F 56.8 °F 30.04 in Calm     76% 0.00 in meteobridge W/m2
22:14 64.2 °F 56.5 °F 30.05 in Calm     76% 0.00 in meteobridge W/m2
22:19 64.0 °F 56.7 °F 30.05 in Calm     77% 0.00 in meteobridge W/m2
22:24 64.0 °F 57.0 °F 30.05 in Calm     78% 0.00 in meteobridge W/m2
22:29 63.9 °F 56.8 °F 30.05 in Calm     78% 0.00 in meteobridge W/m2
22:34 63.7 °F 57.0 °F 30.06 in Calm     79% 0.00 in meteobridge W/m2
22:39 63.5 °F 56.8 °F 30.06 in Calm     79% 0.00 in meteobridge W/m2
22:44 63.3 °F 57.0 °F 30.06 in Calm     80% 0.00 in meteobridge W/m2
22:49 63.3 °F 57.4 °F 30.06 in Calm   1.0 mph 81% 0.00 in meteobridge W/m2
22:54 63.3 °F 57.4 °F 30.06 in Calm     81% 0.00 in meteobridge W/m2
22:59 63.3 °F 57.4 °F 30.05 in Calm     81% 0.00 in meteobridge W/m2
23:04 63.3 °F 57.7 °F 30.06 in Calm     82% 0.00 in meteobridge W/m2
23:09 63.1 °F 57.6 °F 30.05 in Calm     82% 0.00 in meteobridge W/m2
23:14 63.1 °F 57.6 °F 30.05 in Calm     82% 0.00 in meteobridge W/m2
23:19 63.0 °F 58.1 °F 30.05 in Calm     84% 0.00 in meteobridge W/m2
23:24 63.0 °F 58.1 °F 30.06 in Calm     84% 0.00 in meteobridge W/m2
23:29 63.0 °F 58.1 °F 30.05 in Calm     84% 0.00 in meteobridge W/m2
23:34 63.0 °F 58.5 °F 30.06 in Calm     85% 0.00 in meteobridge W/m2
23:39 63.3 °F 58.8 °F 30.06 in Calm     85% 0.00 in meteobridge W/m2
23:44 63.7 °F 59.0 °F 30.06 in Calm     85% 0.00 in meteobridge W/m2
23:49 63.7 °F 58.8 °F 30.06 in Calm     84% 0.00 in meteobridge W/m2
23:54 63.9 °F 59.2 °F 30.06 in Calm     85% 0.00 in meteobridge W/m2
23:59 64.0 °F 59.4 °F 30.05 in Calm     85% 0.00 in meteobridge W/m2
EllijayWeather
Compliments of Weather Underground - 2.5 mb